createdAt,value
2022-12-27T00:01:20.338Z,4.37
2022-12-27T00:06:25.138Z,5.03
2022-12-27T00:11:30.125Z,4.83
2022-12-27T00:16:34.340Z,4.13
2022-12-27T00:21:37.028Z,5.47
2022-12-27T00:26:41.009Z,4.23
2022-12-27T00:31:43.697Z,3.73
2022-12-27T00:36:46.483Z,4.30
2022-12-27T00:41:49.423Z,4.23
2022-12-27T00:46:51.972Z,3.13
2022-12-27T00:51:54.510Z,3.03
2022-12-27T00:56:57.024Z,3.40
2022-12-27T01:01:59.772Z,3.27
2022-12-27T01:07:02.476Z,2.90
2022-12-27T01:12:05.406Z,2.50
2022-12-27T01:17:08.010Z,2.83
2022-12-27T01:22:10.673Z,2.50
2022-12-27T01:27:13.215Z,2.33
2022-12-27T01:32:15.777Z,2.70
2022-12-27T01:37:18.338Z,2.60
2022-12-27T01:42:39.413Z,2.77
2022-12-27T01:48:12.337Z,2.20
2022-12-27T01:53:29.938Z,2.63
2022-12-27T01:58:38.743Z,2.20
2022-12-27T02:03:48.539Z,2.50
2022-12-27T02:09:09.355Z,2.67
2022-12-27T02:14:13.933Z,2.10
2022-12-27T02:19:42.688Z,3.13
2022-12-27T02:25:12.677Z,2.83
2022-12-27T02:30:15.804Z,3.17
2022-12-27T02:35:40.507Z,3.87
2022-12-27T02:41:06.152Z,3.20
2022-12-27T02:46:35.303Z,3.70
2022-12-27T02:52:14.638Z,3.70
2022-12-27T02:57:22.886Z,3.53
2022-12-27T03:03:15.595Z,4.07
2022-12-27T03:08:31.225Z,4.87
2022-12-27T03:14:16.017Z,4.47
2022-12-27T03:19:40.951Z,4.67
2022-12-27T03:25:01.945Z,5.20
2022-12-27T03:30:27.371Z,5.77
2022-12-27T03:35:34.686Z,6.10
2022-12-27T03:41:01.898Z,6.23
2022-12-27T03:46:35.208Z,6.07
2022-12-27T03:51:43.301Z,5.57
2022-12-27T03:56:46.108Z,6.00
2022-12-27T04:01:48.699Z,5.60
2022-12-27T04:06:51.452Z,6.30
2022-12-27T04:12:12.755Z,5.83
2022-12-27T04:17:33.834Z,5.30
2022-12-27T04:22:56.510Z,13.00
2022-12-27T04:28:17.683Z,6.28
2022-12-27T04:33:38.938Z,6.50
2022-12-27T04:38:41.460Z,6.25
2022-12-27T04:44:02.535Z,5.60
2022-12-27T04:49:23.879Z,4.80
2022-12-27T04:54:45.192Z,5.95
2022-12-27T05:00:06.364Z,7.13
2022-12-27T05:05:10.081Z,6.97
2022-12-27T05:10:31.211Z,6.47
2022-12-27T05:15:33.765Z,7.38
2022-12-27T05:20:36.347Z,6.27
2022-12-27T05:25:43.405Z,6.57
2022-12-27T05:30:46.036Z,6.27
2022-12-27T05:35:48.659Z,7.17
2022-12-27T05:40:51.189Z,7.70
2022-12-27T05:45:54.648Z,8.50
2022-12-27T05:50:57.293Z,7.93
2022-12-27T05:56:00.913Z,8.83
2022-12-27T06:01:09.378Z,9.17
2022-12-27T06:06:12.250Z,8.67
2022-12-27T06:11:17.975Z,8.03
2022-12-27T06:16:22.578Z,7.97
2022-12-27T06:21:25.236Z,8.33
2022-12-27T06:26:29.800Z,9.07
2022-12-27T06:31:32.509Z,8.13
2022-12-27T06:36:35.067Z,8.40
2022-12-27T06:41:37.758Z,8.03
2022-12-27T06:46:40.299Z,8.17
2022-12-27T06:51:42.892Z,7.87
2022-12-27T06:56:45.462Z,8.17
2022-12-27T07:01:48.390Z,8.17
2022-12-27T07:06:51.076Z,8.17
2022-12-27T07:11:54.156Z,7.33
2022-12-27T07:16:56.799Z,7.87
2022-12-27T07:21:59.368Z,8.30
2022-12-27T07:27:02.422Z,8.43
2022-12-27T07:32:05.358Z,8.67
2022-12-27T07:37:07.963Z,7.87
2022-12-27T07:42:10.567Z,8.43
2022-12-27T07:47:13.463Z,8.50
2022-12-27T07:52:16.178Z,8.23
2022-12-27T07:57:18.880Z,8.60
2022-12-27T08:02:21.523Z,9.20
2022-12-27T08:07:25.692Z,8.30
2022-12-27T08:12:28.264Z,8.43
2022-12-27T08:17:30.878Z,8.90
2022-12-27T08:22:33.470Z,9.07
2022-12-27T08:27:36.165Z,8.23
2022-12-27T08:32:38.696Z,8.10
2022-12-27T08:37:41.305Z,8.43
2022-12-27T08:42:43.834Z,8.57
2022-12-27T08:47:46.372Z,8.63
2022-12-27T08:52:51.267Z,7.83
2022-12-27T08:58:01.372Z,8.27
2022-12-27T09:03:04.581Z,7.80
2022-12-27T09:08:07.936Z,8.60
2022-12-27T09:13:10.524Z,8.77
2022-12-27T09:18:13.649Z,8.57
2022-12-27T09:23:16.200Z,7.40
2022-12-27T09:28:20.212Z,8.70
2022-12-27T09:33:22.753Z,7.37
2022-12-27T09:38:25.416Z,7.70
2022-12-27T09:43:42.945Z,8.87
2022-12-27T09:48:47.112Z,6.93
2022-12-27T09:54:10.302Z,7.70
2022-12-27T09:59:28.221Z,7.23
2022-12-27T10:05:09.989Z,7.43
2022-12-27T10:10:26.446Z,7.57
2022-12-27T10:15:56.146Z,8.50
2022-12-27T10:21:21.928Z,7.93
2022-12-27T10:26:24.948Z,8.30
2022-12-27T10:31:28.564Z,9.13
2022-12-27T10:36:32.405Z,9.17
2022-12-27T10:42:12.586Z,10.10
2022-12-27T10:47:16.681Z,9.57
2022-12-27T10:52:24.491Z,9.50
2022-12-27T10:57:35.631Z,8.57
2022-12-27T11:03:03.424Z,9.50
2022-12-27T11:08:21.083Z,8.57
2022-12-27T11:13:23.693Z,8.77
2022-12-27T11:18:26.704Z,9.33
2022-12-27T11:23:36.181Z,10.07
2022-12-27T11:28:53.072Z,9.30
2022-12-27T11:33:59.337Z,8.87
2022-12-27T11:39:02.362Z,9.57
2022-12-27T11:44:26.874Z,9.07
2022-12-27T11:49:36.104Z,9.37
2022-12-27T11:54:45.231Z,9.10
2022-12-27T11:59:47.784Z,9.50
2022-12-27T12:05:21.710Z,9.30
2022-12-27T12:10:55.639Z,10.63
2022-12-27T12:16:17.874Z,10.20
2022-12-27T12:21:24.051Z,8.20
2022-12-27T12:26:31.650Z,9.77
2022-12-27T12:32:00.572Z,8.40
2022-12-27T12:37:38.130Z,9.00
2022-12-27T12:43:06.898Z,9.77
2022-12-27T12:48:39.981Z,8.73
2022-12-27T12:54:00.985Z,9.70
2022-12-27T12:59:17.534Z,9.05
2022-12-27T13:04:43.423Z,8.93
2022-12-27T13:09:54.853Z,9.67
2022-12-27T13:15:20.532Z,9.70
2022-12-27T13:20:32.177Z,9.77
2022-12-27T13:26:01.307Z,10.18
2022-12-27T13:31:21.559Z,9.73
2022-12-27T13:36:42.600Z,9.80
2022-12-27T13:42:22.856Z,10.93
2022-12-27T13:47:50.712Z,9.33
2022-12-27T13:53:24.256Z,10.20
2022-12-27T13:58:27.569Z,11.07
2022-12-27T14:03:30.155Z,11.83
2022-12-27T14:08:57.066Z,11.50
2022-12-27T14:14:02.054Z,11.23
2022-12-27T14:19:58.823Z,11.13
2022-12-27T14:25:13.184Z,15.73
2022-12-27T14:30:21.744Z,13.32
2022-12-27T14:35:27.314Z,11.97
2022-12-27T14:40:34.464Z,11.88
2022-12-27T14:46:05.404Z,11.60
2022-12-27T14:57:03.653Z,13.45
2022-12-27T15:02:25.318Z,11.88
2022-12-27T15:07:55.503Z,12.20
2022-12-27T15:13:30.247Z,11.53
2022-12-27T15:18:45.377Z,13.23
2022-12-27T15:24:01.679Z,12.83
2022-12-27T15:29:35.276Z,13.02
2022-12-27T15:34:42.401Z,12.73
2022-12-27T15:39:47.319Z,12.80
2022-12-27T15:45:16.092Z,13.13
2022-12-27T15:50:30.733Z,12.93
2022-12-27T15:56:04.322Z,13.60
2022-12-27T16:01:23.650Z,13.13
2022-12-27T16:06:34.214Z,9.50
2022-12-27T16:11:58.485Z,13.80
2022-12-27T16:17:24.267Z,13.13
2022-12-27T16:22:36.515Z,12.88
2022-12-27T16:27:39.184Z,13.15
2022-12-27T16:32:48.576Z,13.05
2022-12-27T16:37:54.990Z,13.95
2022-12-27T16:43:17.681Z,13.48
2022-12-27T16:48:51.972Z,13.07
2022-12-27T16:54:31.344Z,14.73
2022-12-27T16:59:57.310Z,13.05
2022-12-27T17:05:00.999Z,12.30
2022-12-27T17:10:27.196Z,12.85
2022-12-27T17:15:31.663Z,13.05
2022-12-27T17:20:34.814Z,12.60
2022-12-27T17:25:48.764Z,13.23
2022-12-27T17:30:54.577Z,13.43
2022-12-27T17:36:21.834Z,12.75
2022-12-27T17:41:54.453Z,12.35
2022-12-27T17:47:37.213Z,11.82
2022-12-27T17:52:58.436Z,12.52
2022-12-27T17:58:03.953Z,12.68
2022-12-27T18:03:09.848Z,12.60
2022-12-27T18:08:28.291Z,13.00
2022-12-27T18:13:38.036Z,11.93
2022-12-27T18:18:40.801Z,13.02
2022-12-27T18:23:43.858Z,13.00
2022-12-27T18:28:48.182Z,12.75
2022-12-27T18:33:52.963Z,12.32
2022-12-27T18:39:18.287Z,13.10
2022-12-27T18:44:39.245Z,14.63
2022-12-27T18:49:42.386Z,12.70
2022-12-27T18:54:45.108Z,12.40
2022-12-27T19:00:00.972Z,12.18
2022-12-27T19:05:33.049Z,12.30
2022-12-27T19:10:36.046Z,10.85
2022-12-27T19:15:43.372Z,13.10
2022-12-27T19:20:54.150Z,12.57
2022-12-27T19:26:26.044Z,11.98
2022-12-27T19:31:29.234Z,12.27
2022-12-27T19:36:44.108Z,11.55
2022-12-27T19:41:48.417Z,11.70
2022-12-27T19:46:51.037Z,12.43
2022-12-27T19:51:56.283Z,12.18
2022-12-27T19:56:58.880Z,12.07
2022-12-27T20:02:01.624Z,12.68
2022-12-27T20:07:04.488Z,19.52
2022-12-27T20:12:09.595Z,12.82
2022-12-27T20:17:12.115Z,12.27
2022-12-27T20:22:14.651Z,10.82
2022-12-27T20:27:20.226Z,10.57
2022-12-27T20:32:22.993Z,11.32
2022-12-27T20:37:25.646Z,11.80
2022-12-27T20:42:28.294Z,13.05
2022-12-27T20:47:32.367Z,11.55
2022-12-27T20:52:38.599Z,10.65
2022-12-27T20:57:42.569Z,11.52
2022-12-27T21:02:45.644Z,10.00
2022-12-27T21:07:48.346Z,11.02
2022-12-27T21:12:50.888Z,10.40
2022-12-27T21:17:53.430Z,10.88
2022-12-27T21:22:56.044Z,10.65
2022-12-27T21:27:58.675Z,10.25
2022-12-27T21:33:01.345Z,10.25
2022-12-27T21:38:03.897Z,10.35
2022-12-27T21:43:06.456Z,10.50
2022-12-27T21:48:08.994Z,9.82
2022-12-27T21:53:11.990Z,9.82
2022-12-27T21:58:14.630Z,10.00
2022-12-27T22:03:17.442Z,8.65
2022-12-27T22:08:20.406Z,9.02
2022-12-27T22:13:23.394Z,9.70
2022-12-27T22:18:26.374Z,8.45
2022-12-27T22:23:38.487Z,8.88
2022-12-27T22:28:41.973Z,8.80
2022-12-27T22:33:44.920Z,8.25
2022-12-27T22:38:50.355Z,9.00
2022-12-27T22:43:56.217Z,8.40
2022-12-27T22:49:01.173Z,8.48
2022-12-27T22:54:05.265Z,7.55
2022-12-27T22:59:09.697Z,7.63
2022-12-27T23:04:13.858Z,7.32
2022-12-27T23:09:16.508Z,7.40
2022-12-27T23:14:19.074Z,10.90
2022-12-27T23:19:24.377Z,7.93
2022-12-27T23:24:26.926Z,7.20
2022-12-27T23:29:29.488Z,7.15
2022-12-27T23:34:32.154Z,7.80
2022-12-27T23:39:34.740Z,7.93
2022-12-27T23:44:37.355Z,7.60
2022-12-27T23:49:39.940Z,8.13
2022-12-27T23:54:42.466Z,7.93
2022-12-27T23:59:45.023Z,8.38
